Time;durP1;ratioP1;P1;durP2;ratioP2;P2;SDS_P1;SDS_P2;PMS_P1;PMS_P2;Temp;Humidity;BMP_temperature;BMP_pressure;BME280_temperature;BME280_humidity;BME280_pressure;Samples;Min_cycle;Max_cycle;Signal;HPM_P1;HPM_P2
2021/12/19 00:01:09;;;;;;;19.58;10.98;;;;;;;6.44;100.00;103586.69;6217417;23;20072;-67
2021/12/19 00:03:50;;;;;;;19.23;11.05;;;;;;;6.45;100.00;103592.78;6217493;23;20338;-66
2021/12/19 00:09:01;;;;;;;23.50;11.27;;;;;;;6.48;100.00;103590.34;6217328;23;20024;-66
2021/12/19 00:11:27;;;;;;;21.55;12.18;;;;;;;6.45;100.00;103583.28;6217389;23;20050;-67
2021/12/19 00:13:53;;;;;;;26.60;13.40;;;;;;;6.47;100.00;103581.66;6217193;23;20012;-67
2021/12/19 00:16:20;;;;;;;25.35;14.02;;;;;;;6.48;100.00;103574.72;6219551;23;20004;-66
2021/12/19 00:18:47;;;;;;;23.27;13.48;;;;;;;6.49;100.00;103568.72;6219499;23;20039;-65
2021/12/19 00:21:17;;;;;;;19.30;12.00;;;;;;;6.49;100.00;103571.31;6219289;23;20016;-67
2021/12/19 00:23:44;;;;;;;23.85;12.02;;;;;;;6.49;100.00;103573.91;6219401;23;20099;-65
2021/12/19 00:26:10;;;;;;;19.70;11.18;;;;;;;6.49;100.00;103571.31;6219340;23;20008;-68
2021/12/19 00:28:36;;;;;;;20.40;11.25;;;;;;;6.48;100.00;103562.63;6218933;23;20008;-65
2021/12/19 00:31:02;;;;;;;22.02;11.95;;;;;;;6.48;100.00;103573.03;6219371;23;20031;-66
2021/12/19 00:33:28;;;;;;;20.58;11.45;;;;;;;6.46;100.00;103568.56;6219254;23;20016;-66
2021/12/19 00:35:53;;;;;;;22.98;12.40;;;;;;;6.41;100.00;103549.25;6219009;23;20004;-66
2021/12/19 00:38:19;;;;;;;19.30;11.43;;;;;;;6.43;100.00;103555.41;6219635;23;20017;-68
2021/12/19 00:40:45;;;;;;;21.45;11.88;;;;;;;6.43;100.00;103556.31;6219153;23;20074;-65
2021/12/19 00:43:23;;;;;;;23.20;12.65;;;;;;;6.37;100.00;103557.75;6218802;23;20012;-66
2021/12/19 00:45:50;;;;;;;23.65;12.10;;;;;;;6.37;100.00;103557.75;6218822;23;20426;-66
2021/12/19 00:48:16;;;;;;;25.35;12.50;;;;;;;6.38;100.00;103557.81;6218618;23;20293;-66
2021/12/19 00:50:42;;;;;;;24.48;12.52;;;;;;;6.40;100.00;103552.69;6219040;23;20024;-67
2021/12/19 00:53:08;;;;;;;25.92;12.68;;;;;;;6.39;100.00;103546.59;6219112;23;20016;-67
2021/12/19 00:55:33;;;;;;;28.70;13.18;;;;;;;6.36;100.00;103556.84;6219152;23;20440;-65
2021/12/19 00:57:59;;;;;;;30.48;14.18;;;;;;;6.41;100.00;103557.03;6218589;23;20398;-67
2021/12/19 01:00:28;;;;;;;34.00;15.32;;;;;;;6.38;100.00;103551.72;6219068;23;20012;-67
2021/12/19 01:02:57;;;;;;;31.75;15.13;;;;;;;6.35;100.00;103548.97;6218876;23;20009;-67
2021/12/19 01:05:23;;;;;;;37.72;15.93;;;;;;;6.28;100.00;103552.97;6219235;23;20011;-67
2021/12/19 01:07:49;;;;;;;34.10;16.20;;;;;;;6.25;100.00;103552.81;6218844;23;20036;-66
2021/12/19 01:10:14;;;;;;;30.00;14.68;;;;;;;6.25;100.00;103552.81;6218850;23;19997;-66
2021/12/19 01:12:40;;;;;;;38.13;15.13;;;;;;;6.24;100.00;103548.44;6218761;23;20013;-65
2021/12/19 01:15:07;;;;;;;32.15;16.13;;;;;;;6.23;100.00;103544.94;6218725;23;20020;-66
2021/12/19 01:17:32;;;;;;;38.05;16.85;;;;;;;6.18;100.00;103536.06;6218307;23;20403;-67
2021/12/19 01:19:58;;;;;;;38.38;17.02;;;;;;;6.20;100.00;103538.75;6218849;23;20015;-66
2021/12/19 01:22:23;;;;;;;34.95;16.63;;;;;;;6.17;100.00;103530.78;6218364;23;20406;-67
2021/12/19 01:24:48;;;;;;;33.78;15.00;;;;;;;6.18;100.00;103536.06;6218770;23;20009;-67
2021/12/19 01:27:14;;;;;;;30.95;14.35;;;;;;;6.15;100.00;103527.22;6218307;23;20028;-65
2021/12/19 01:29:39;;;;;;;30.45;14.18;;;;;;;6.17;100.00;103536.00;6218752;23;20023;-66
2021/12/19 01:32:05;;;;;;;35.22;14.98;;;;;;;6.17;100.00;103534.28;6218527;23;20008;-66
2021/12/19 01:34:30;;;;;;;32.97;13.60;;;;;;;6.14;100.00;103534.13;6218842;23;20019;-66
2021/12/19 01:36:55;;;;;;;26.88;12.05;;;;;;;6.10;100.00;103532.19;6218603;23;20008;-66
2021/12/19 01:39:21;;;;;;;30.05;12.05;;;;;;;6.13;100.00;103527.16;6218906;23;20016;-67
2021/12/19 01:41:55;;;;;;;26.17;11.73;;;;;;;6.16;100.00;103523.81;6218517;23;20019;-66
2021/12/19 01:44:20;;;;;;;26.92;12.70;;;;;;;6.16;100.00;103524.69;6218125;23;20422;-65
2021/12/19 01:46:46;;;;;;;30.38;13.25;;;;;;;6.17;100.00;103528.19;6218354;23;20016;-66
2021/12/19 01:49:16;;;;;;;32.53;13.45;;;;;;;6.13;100.00;103532.34;6218220;23;20358;-66
2021/12/19 01:51:42;;;;;;;32.75;13.25;;;;;;;6.10;100.00;103527.00;6218485;23;20008;-66
2021/12/19 01:54:07;;;;;;;31.00;13.18;;;;;;;6.12;100.00;103520.16;6218532;23;20491;-66
2021/12/19 01:56:33;;;;;;;31.95;13.63;;;;;;;6.14;100.00;103523.72;6218751;23;20008;-65
2021/12/19 01:58:58;;;;;;;32.30;13.93;;;;;;;6.12;100.00;103514.97;6218037;23;20000;-66
2021/12/19 02:01:24;;;;;;;30.90;13.27;;;;;;;6.11;100.00;103515.78;6218218;23;20039;-65
2021/12/19 02:03:50;;;;;;;30.67;13.40;;;;;;;6.15;100.00;103515.13;6218312;23;20032;-66
2021/12/19 02:06:15;;;;;;;26.98;12.00;;;;;;;6.14;100.00;103512.44;6218655;23;20004;-67
2021/12/19 02:08:41;;;;;;;29.27;12.75;;;;;;;6.11;100.00;103502.78;6218450;23;20070;-65
2021/12/19 02:11:07;;;;;;;29.67;12.70;;;;;;;6.09;100.00;103506.13;6218545;23;20015;-65
2021/12/19 02:13:33;;;;;;;26.08;12.23;;;;;;;6.09;100.00;103514.81;6217972;23;20008;-66
2021/12/19 02:15:58;;;;;;;27.25;12.35;;;;;;;6.09;100.00;103508.72;6218033;23;20008;-66
2021/12/19 02:18:24;;;;;;;26.52;12.15;;;;;;;6.01;100.00;103495.38;6218233;23;20009;-66
2021/12/19 02:20:52;;;;;;;31.00;12.30;;;;;;;6.08;100.00;103504.34;6218126;23;20070;-66
2021/12/19 02:23:24;;;;;;;30.48;12.15;;;;;;;6.10;100.00;103507.91;6217828;23;20294;-67
2021/12/19 02:25:49;;;;;;;29.77;12.77;;;;;;;6.07;100.00;103500.84;6218197;23;20009;-66
2021/12/19 02:28:15;;;;;;;33.65;13.10;;;;;;;6.04;100.00;103500.72;6217926;23;20004;-66
2021/12/19 02:30:40;;;;;;;33.47;13.55;;;;;;;6.03;100.00;103498.06;6218016;23;20005;-65
2021/12/19 02:33:11;;;;;;;31.77;12.77;;;;;;;5.99;100.00;103497.00;6218239;23;20019;-65
2021/12/19 02:35:36;;;;;;;29.58;12.60;;;;;;;5.99;100.00;103489.22;6218433;23;20005;-65
2021/12/19 02:48:45;;;;;;;36.22;14.45;;;;;;;5.91;100.00;103467.16;6217754;23;20504;-65
2021/12/19 02:51:10;;;;;;;38.05;14.30;;;;;;;5.92;100.00;103463.72;6217968;23;20009;-66
2021/12/19 02:53:39;;;;;;;41.55;14.93;;;;;;;5.95;100.00;103469.09;6218118;23;20013;-66
2021/12/19 02:56:07;;;;;;;39.88;15.18;;;;;;;5.90;100.00;103467.97;6217486;23;20009;-66
2021/12/19 02:58:35;;;;;;;39.85;15.15;;;;;;;5.85;100.00;103453.84;6217498;23;20084;-65
2021/12/19 03:01:04;;;;;;;46.03;15.88;;;;;;;5.90;100.00;103465.38;6217758;23;20020;-67
2021/12/19 03:03:29;;;;;;;43.70;16.00;;;;;;;5.94;100.00;103469.91;6217895;23;20008;-66
2021/12/19 03:05:54;;;;;;;44.28;16.83;;;;;;;5.80;100.00;103442.34;6217883;23;20068;-66
2021/12/19 03:08:20;;;;;;;43.92;15.07;;;;;;;5.92;100.00;103456.81;6217619;23;20039;-66
2021/12/19 03:18:28;;;;;;;45.08;15.90;;;;;;;5.93;100.00;103458.63;6217186;23;20067;-66
2021/12/19 03:20:54;;;;;;;51.38;16.05;;;;;;;5.90;100.00;103457.56;6217209;23;20294;-67
2021/12/19 03:23:20;;;;;;;52.13;15.75;;;;;;;5.91;100.00;103449.84;6217603;23;20083;-65
2021/12/19 03:25:45;;;;;;;47.13;15.48;;;;;;;5.95;100.00;103443.09;6217575;23;20009;-65
2021/12/19 03:28:13;;;;;;;47.10;15.73;;;;;;;5.92;100.00;103438.63;6217320;23;20008;-66
2021/12/19 03:30:41;;;;;;;52.70;16.23;;;;;;;5.88;100.00;103441.00;6217945;23;20009;-67
2021/12/19 03:33:07;;;;;;;44.30;15.32;;;;;;;5.84;100.00;103432.16;6217442;23;20086;-66
2021/12/19 03:35:33;;;;;;;49.35;16.10;;;;;;;5.83;100.00;103424.31;6217418;23;20295;-66
2021/12/19 03:38:01;;;;;;;42.72;14.85;;;;;;;5.88;100.00;103425.41;6217595;23;20004;-66
2021/12/19 03:40:37;;;;;;;56.90;15.88;;;;;;;5.85;100.00;103426.16;6217592;23;20013;-67
2021/12/19 03:43:22;;;;;;;45.88;16.27;;;;;;;5.87;100.00;103424.53;6217389;23;20009;-66
2021/12/19 03:45:48;;;;;;;56.67;16.35;;;;;;;5.81;100.00;103428.53;6217100;23;20110;-66
2021/12/19 03:48:15;;;;;;;46.22;15.05;;;;;;;5.78;100.00;103429.28;6217341;23;20280;-65
2021/12/19 03:50:44;;;;;;;50.03;16.08;;;;;;;5.77;100.00;103426.59;6217203;23;20015;-66
2021/12/19 03:53:11;;;;;;;52.53;16.48;;;;;;;5.75;100.00;103417.84;6217895;23;20019;-65
2021/12/19 03:55:36;;;;;;;51.40;15.57;;;;;;;5.75;100.00;103410.94;6217109;23;20009;-66
2021/12/19 03:58:03;;;;;;;51.63;16.42;;;;;;;5.75;100.00;103413.53;6217333;23;20030;-65
2021/12/19 04:00:30;;;;;;;51.63;16.10;;;;;;;5.76;100.00;103409.22;6217584;23;20075;-66
2021/12/19 04:02:59;;;;;;;45.60;15.25;;;;;;;5.73;100.00;103399.56;6217321;23;20372;-66
2021/12/19 04:05:25;;;;;;;49.10;15.98;;;;;;;5.74;100.00;103403.97;6217413;23;20009;-66
2021/12/19 04:07:50;;;;;;;47.50;16.02;;;;;;;5.73;100.00;103404.78;6217414;23;20279;-66
2021/12/19 04:10:16;;;;;;;50.90;15.90;;;;;;;5.73;100.00;103404.78;6217359;23;20009;-66
2021/12/19 04:12:43;;;;;;;51.03;16.50;;;;;;;5.67;100.00;103409.69;6217165;23;20005;-66
2021/12/19 04:15:10;;;;;;;53.22;16.63;;;;;;;5.62;100.00;103397.28;6217378;23;20334;-66
2021/12/19 04:17:36;;;;;;;47.97;15.57;;;;;;;5.56;100.00;103395.28;6217393;23;20009;-65
2021/12/19 04:20:02;;;;;;;44.25;15.63;;;;;;;5.64;100.00;103406.94;6217270;23;20026;-66
2021/12/19 04:22:27;;;;;;;48.47;14.57;;;;;;;5.57;100.00;103389.28;6216828;23;20011;-67
2021/12/19 04:24:53;;;;;;;40.75;13.90;;;;;;;5.50;100.00;103384.63;6217385;23;20084;-66
2021/12/19 04:27:19;;;;;;;46.20;14.95;;;;;;;5.47;100.00;103381.88;6217305;23;20337;-65
2021/12/19 04:29:44;;;;;;;45.78;14.38;;;;;;;5.47;100.00;103380.16;6217167;23;20015;-67
2021/12/19 04:32:11;;;;;;;38.63;13.25;;;;;;;5.46;100.00;103382.69;6217918;23;20004;-66
2021/12/19 04:34:36;;;;;;;39.33;12.77;;;;;;;5.45;100.00;103375.72;6217318;23;20015;-66
2021/12/19 04:37:04;;;;;;;41.88;12.93;;;;;;;5.47;100.00;103377.56;6217212;23;20005;-66
2021/12/19 04:42:49;;;;;;;40.00;12.95;;;;;;;5.46;100.00;103375.78;6227121;23;20009;-65
2021/12/19 04:53:03;;;;;;;35.72;10.65;;;;;;;5.26;100.00;103360.94;6216845;23;20027;-66
2021/12/19 04:55:56;;;;;;;29.60;9.95;;;;;;;5.19;100.00;103339.00;6216990;23;20016;-65
2021/12/19 05:01:24;;;;;;;31.98;10.35;;;;;;;5.36;100.00;103355.41;6227710;23;20013;-65
2021/12/19 05:04:08;;;;;;;34.28;9.60;;;;;;;5.36;100.00;103344.13;6218865;23;20009;-66
2021/12/19 05:14:33;;;;;;;32.40;10.02;;;;;;;5.41;100.00;103359.09;6218396;23;20023;-66
2021/12/19 05:17:05;;;;;;;31.35;10.25;;;;;;;5.38;100.00;103353.75;6218293;23;20413;-65
2021/12/19 05:19:43;;;;;;;32.70;10.55;;;;;;;5.41;100.00;103356.50;6218409;23;20005;-68
2021/12/19 05:22:09;;;;;;;33.67;9.98;;;;;;;5.30;100.00;103330.84;6218949;23;20357;-66
2021/12/19 05:27:04;;;;;;;34.72;10.23;;;;;;;5.41;100.00;103353.00;6228736;23;20044;-66
2021/12/19 05:29:31;;;;;;;37.55;10.82;;;;;;;5.42;100.00;103353.06;6218495;23;20264;-65
2021/12/19 05:31:56;;;;;;;32.20;10.65;;;;;;;5.43;100.00;103360.06;6218592;23;20008;-66
2021/12/19 05:34:22;;;;;;;36.63;11.27;;;;;;;5.38;100.00;103355.44;6218545;23;20016;-67
2021/12/19 05:47:25;;;;;;;41.05;13.13;;;;;;;5.38;100.00;103351.16;6228470;23;20048;-67
2021/12/19 05:49:50;;;;;;;41.22;12.55;;;;;;;5.38;100.00;103350.25;6218579;23;20016;-66
2021/12/19 05:52:16;;;;;;;34.40;11.60;;;;;;;5.33;100.00;103350.06;6218541;23;20013;-66
2021/12/19 05:54:41;;;;;;;36.30;11.43;;;;;;;5.35;100.00;103351.03;6218138;23;20004;-66
2021/12/19 05:57:07;;;;;;;36.03;11.38;;;;;;;5.33;100.00;103355.25;6218189;23;20069;-65
2021/12/19 05:59:32;;;;;;;36.03;11.60;;;;;;;5.34;100.00;103348.34;6217310;23;20008;-67
2021/12/19 06:01:57;;;;;;;30.05;11.23;;;;;;;5.27;100.00;103336.78;6218295;23;20031;-66
2021/12/19 06:04:23;;;;;;;27.60;10.13;;;;;;;5.28;100.00;103342.84;6218614;23;20004;-66
2021/12/19 06:06:48;;;;;;;30.80;9.45;;;;;;;5.19;100.00;103323.44;6218397;23;20009;-66
2021/12/19 06:09:14;;;;;;;25.45;9.57;;;;;;;5.28;100.00;103335.97;6218715;23;20008;-66
2021/12/19 06:11:39;;;;;;;25.65;8.63;;;;;;;5.30;100.00;103336.03;6217763;23;20464;-66
2021/12/19 06:14:04;;;;;;;20.42;8.75;;;;;;;5.25;100.00;103325.41;6218432;23;20410;-61
2021/12/19 06:16:30;;;;;;;21.05;8.23;;;;;;;5.29;100.00;103336.84;6218595;23;20005;-64
2021/12/19 06:18:55;;;;;;;28.65;9.52;;;;;;;5.26;100.00;103324.59;6218315;23;20011;-63
2021/12/19 06:21:20;;;;;;;21.45;9.85;;;;;;;5.25;100.00;103328.00;6218331;23;20298;-63
2021/12/19 06:23:46;;;;;;;24.75;10.07;;;;;;;5.32;100.00;103329.22;6218141;23;20088;-65
2021/12/19 06:26:12;;;;;;;23.90;10.35;;;;;;;5.32;100.00;103324.91;6217864;23;20012;-64
2021/12/19 06:28:38;;;;;;;28.42;10.63;;;;;;;5.34;100.00;103325.00;6218133;23;20023;-63
2021/12/19 06:31:03;;;;;;;24.00;10.77;;;;;;;5.32;100.00;103331.81;6218677;23;20071;-63
2021/12/19 06:33:28;;;;;;;24.42;10.25;;;;;;;5.34;100.00;103336.25;6218405;23;20318;-64
2021/12/19 06:35:54;;;;;;;24.83;11.20;;;;;;;5.34;100.00;103331.06;6217919;23;20057;-64
2021/12/19 06:38:19;;;;;;;29.02;11.73;;;;;;;5.30;100.00;103318.75;6217400;23;20008;-64
2021/12/19 06:40:44;;;;;;;26.42;11.48;;;;;;;5.39;100.00;103326.97;6218206;23;20008;-65
2021/12/19 06:43:10;;;;;;;31.65;12.95;;;;;;;5.38;100.00;103319.09;6217597;23;20310;-63
2021/12/19 06:45:36;;;;;;;31.80;12.60;;;;;;;5.40;100.00;103331.34;6218120;23;20035;-64
2021/12/19 06:48:01;;;;;;;29.20;13.20;;;;;;;5.36;100.00;103316.47;6217642;23;20406;-65
2021/12/19 06:50:26;;;;;;;29.70;12.98;;;;;;;5.41;100.00;103322.75;6217831;23;20402;-64
2021/12/19 06:52:53;;;;;;;34.75;13.88;;;;;;;5.42;100.00;103301.16;6217431;23;20466;-64
2021/12/19 06:55:19;;;;;;;35.00;14.07;;;;;;;5.40;100.00;103294.09;6217916;23;20353;-64
2021/12/19 06:57:45;;;;;;;35.88;14.70;;;;;;;5.42;100.00;103300.25;6218084;23;20026;-63
2021/12/19 07:00:15;;;;;;;36.08;15.07;;;;;;;5.48;100.00;103288.47;6217642;23;20079;-64
2021/12/19 07:02:40;;;;;;;34.85;13.68;;;;;;;5.47;100.00;103283.19;6217748;23;20023;-62
2021/12/19 07:05:06;;;;;;;34.70;15.27;;;;;;;5.49;100.00;103281.56;6217882;23;20075;-63
2021/12/19 07:07:31;;;;;;;36.75;14.77;;;;;;;5.47;100.00;103276.28;6217776;23;20084;-64
2021/12/19 07:09:57;;;;;;;35.72;15.02;;;;;;;5.46;100.00;103282.31;6217754;23;20000;-64
2021/12/19 07:12:26;;;;;;;38.88;15.93;;;;;;;5.48;100.00;103284.97;6217504;23;20416;-63
2021/12/19 07:14:53;;;;;;;35.60;15.52;;;;;;;5.49;100.00;103282.44;6217939;23;20009;-63
2021/12/19 07:17:18;;;;;;;34.30;15.50;;;;;;;5.53;100.00;103286.97;6217854;23;20031;-62
2021/12/19 07:19:43;;;;;;;40.65;16.23;;;;;;;5.50;100.00;103284.22;6217315;23;20398;-63
2021/12/19 07:22:08;;;;;;;44.58;17.10;;;;;;;5.52;100.00;103274.81;6217599;23;20020;-58
2021/12/19 07:24:34;;;;;;;40.85;17.25;;;;;;;5.45;100.00;103277.94;6217782;23;20071;-67
2021/12/19 07:26:59;;;;;;;41.03;16.60;;;;;;;5.41;100.00;103263.00;6217026;23;20066;-65
2021/12/19 07:29:24;;;;;;;37.10;16.27;;;;;;;5.46;100.00;103279.72;6217248;23;20004;-66
2021/12/19 07:31:50;;;;;;;38.75;16.67;;;;;;;5.48;100.00;103282.38;6217776;23;20000;-66
2021/12/19 07:34:15;;;;;;;39.20;16.00;;;;;;;5.48;100.00;103269.41;6217827;23;20036;-66
2021/12/19 07:36:47;;;;;;;42.08;16.55;;;;;;;5.51;100.00;103277.34;6217520;23;20012;-65
2021/12/19 07:39:24;;;;;;;43.72;17.33;;;;;;;5.56;100.00;103275.81;6217440;23;20001;-66
2021/12/19 07:41:49;;;;;;;42.58;17.58;;;;;;;5.54;100.00;103273.16;6217835;23;20004;-65
2021/12/19 07:44:14;;;;;;;41.05;16.65;;;;;;;5.61;100.00;103276.94;6218047;23;20019;-67
2021/12/19 07:46:40;;;;;;;42.25;17.58;;;;;;;5.58;100.00;103262.09;6217493;23;20016;-71
2021/12/19 07:49:05;;;;;;;45.17;17.83;;;;;;;5.62;100.00;103264.81;6216924;23;19996;-70
2021/12/19 07:51:31;;;;;;;41.78;17.35;;;;;;;5.63;100.00;103261.41;6217000;23;20005;-70
2021/12/19 07:53:56;;;;;;;51.63;18.65;;;;;;;5.65;100.00;103259.78;6217073;23;20063;-71
2021/12/19 07:56:21;;;;;;;45.10;18.50;;;;;;;5.66;100.00;103246.88;6217358;23;20015;-69
2021/12/19 07:58:47;;;;;;;44.05;18.05;;;;;;;5.67;100.00;103243.44;6216149;23;20275;-70
2021/12/19 08:01:12;;;;;;;44.13;18.45;;;;;;;5.64;100.00;103238.09;6214785;23;20005;-70
2021/12/19 08:03:37;;;;;;;43.38;18.15;;;;;;;5.66;100.00;103240.78;6216703;23;20015;-70
2021/12/19 08:06:03;;;;;;;52.88;19.20;;;;;;;5.70;100.00;103255.69;6217839;23;20004;-70
2021/12/19 08:08:32;;;;;;;49.42;19.70;;;;;;;5.70;100.00;103253.09;6217885;23;20007;-71
2021/12/19 08:13:41;;;;;;;41.10;17.25;;;;;;;5.67;100.00;103240.84;6216937;23;20043;-68
2021/12/19 08:16:06;;;;;;;44.53;18.17;;;;;;;5.66;100.00;103240.78;6217110;23;20030;-70
2021/12/19 08:18:32;;;;;;;36.38;15.85;;;;;;;5.72;100.00;103241.03;6217246;23;20361;-68
2021/12/19 08:20:57;;;;;;;31.75;14.00;;;;;;;5.75;100.00;103246.38;6216767;23;20074;-69
2021/12/19 08:23:22;;;;;;;37.63;14.57;;;;;;;5.74;100.00;103245.47;6216893;23;20111;-70
2021/12/19 08:25:47;;;;;;;39.53;15.88;;;;;;;5.76;100.00;103241.25;6217261;23;20016;-70
2021/12/19 08:28:13;;;;;;;29.52;12.88;;;;;;;5.71;100.00;103234.97;6217614;23;20382;-69
2021/12/19 08:30:38;;;;;;;30.80;12.10;;;;;;;5.68;100.00;103233.94;6217490;23;20473;-69
2021/12/19 08:33:03;;;;;;;28.50;11.98;;;;;;;5.75;100.00;103235.97;6217357;23;20023;-69
2021/12/19 08:35:29;;;;;;;23.58;10.70;;;;;;;5.75;100.00;103231.66;6217429;23;20008;-70
2021/12/19 08:37:54;;;;;;;24.08;11.13;;;;;;;5.77;100.00;103230.03;6218974;23;20008;-70
2021/12/19 08:40:22;;;;;;;22.58;10.15;;;;;;;5.81;100.00;103231.97;6219390;23;20032;-69
2021/12/19 08:42:47;;;;;;;21.55;9.63;;;;;;;5.83;100.00;103238.13;6219236;23;20074;-71
2021/12/19 08:45:12;;;;;;;24.40;10.27;;;;;;;5.84;100.00;103234.69;6217902;23;20310;-70
2021/12/19 08:47:38;;;;;;;22.80;10.48;;;;;;;5.90;100.00;103239.28;6218763;23;20005;-70
2021/12/19 08:50:05;;;;;;;21.67;9.98;;;;;;;5.92;100.00;103246.34;6219014;23;20004;-70
2021/12/19 08:52:31;;;;;;;26.05;11.70;;;;;;;5.97;100.00;103248.25;6218592;23;20406;-69
2021/12/19 08:54:57;;;;;;;28.50;13.00;;;;;;;5.94;100.00;103243.81;6219509;23;20008;-70
2021/12/19 08:57:22;;;;;;;30.38;12.70;;;;;;;5.92;100.00;103229.84;6219266;23;20004;-70
2021/12/19 08:59:47;;;;;;;32.50;14.00;;;;;;;5.95;100.00;103230.00;6218976;23;20031;-70
2021/12/19 09:02:13;;;;;;;34.17;15.55;;;;;;;6.01;100.00;103230.28;6218520;23;20015;-70
2021/12/19 09:04:38;;;;;;;36.85;15.57;;;;;;;6.01;100.00;103227.66;6219022;23;20005;-70
2021/12/19 09:07:04;;;;;;;35.92;16.08;;;;;;;6.07;100.00;103235.72;6218512;23;20015;-70
2021/12/19 09:09:29;;;;;;;39.70;15.40;;;;;;;6.06;100.00;103233.06;6219506;23;20009;-69
2021/12/19 09:11:54;;;;;;;36.17;15.63;;;;;;;6.07;100.00;103217.50;6218925;23;20043;-70
2021/12/19 09:14:20;;;;;;;39.30;16.75;;;;;;;6.11;100.00;103229.84;6218753;23;20013;-66
2021/12/19 09:16:45;;;;;;;37.95;16.02;;;;;;;6.15;100.00;103225.66;6218750;23;20008;-70
2021/12/19 09:19:12;;;;;;;29.58;13.32;;;;;;;6.13;100.00;103223.00;6218669;23;20035;-67
2021/12/19 09:21:37;;;;;;;32.67;13.38;;;;;;;6.12;100.00;103220.31;6218645;23;20007;-70
2021/12/19 09:24:03;;;;;;;30.52;13.35;;;;;;;6.18;100.00;103220.59;6219069;23;20004;-69
2021/12/19 09:26:28;;;;;;;25.35;12.13;;;;;;;6.14;100.00;103210.88;6219233;23;20379;-69
2021/12/19 09:28:53;;;;;;;24.20;11.23;;;;;;;6.19;100.00;103219.78;6218844;23;20070;-68
2021/12/19 09:31:21;;;;;;;22.50;10.80;;;;;;;6.15;100.00;103210.06;6218486;23;20385;-70
2021/12/19 09:33:46;;;;;;;24.42;10.63;;;;;;;6.16;100.00;103202.34;6218664;23;20008;-69
2021/12/19 09:36:12;;;;;;;21.58;9.75;;;;;;;6.19;100.00;103217.19;6218564;23;20011;-68
2021/12/19 09:38:37;;;;;;;19.92;9.68;;;;;;;6.14;100.00;103205.69;6220113;23;20005;-69
2021/12/19 09:41:12;;;;;;;19.40;9.75;;;;;;;6.21;100.00;103207.72;6221190;23;20035;-69
2021/12/19 09:43:44;;;;;;;17.83;8.55;;;;;;;6.24;100.00;103202.63;6218376;23;20017;-69
2021/12/19 09:46:16;;;;;;;16.45;8.23;;;;;;;6.21;100.00;103203.41;6218739;23;20020;-69
2021/12/19 09:48:44;;;;;;;16.23;7.70;;;;;;;6.28;100.00;103208.03;6218015;23;20008;-69
2021/12/19 09:51:11;;;;;;;14.68;7.22;;;;;;;6.28;100.00;103210.63;6218288;23;20040;-69
2021/12/19 09:53:38;;;;;;;15.07;7.35;;;;;;;6.19;100.00;103191.19;6218564;23;20444;-69
2021/12/19 09:56:04;;;;;;;17.27;7.35;;;;;;;6.29;100.00;103209.81;6218749;23;20077;-69
2021/12/19 09:58:34;;;;;;;15.95;7.15;;;;;;;6.29;100.00;103203.72;6218477;23;20000;-68
2021/12/19 10:01:01;;;;;;;15.02;7.03;;;;;;;6.36;100.00;103208.38;6218140;23;20088;-69
2021/12/19 10:03:27;;;;;;;14.48;6.65;;;;;;;6.34;100.00;103212.63;6217882;23;20004;-68
2021/12/19 10:06:14;;;;;;;15.07;6.93;;;;;;;6.38;100.00;103217.13;6218416;23;20004;-58
2021/12/19 10:08:39;;;;;;;18.95;9.07;;;;;;;6.32;100.00;103201.25;6218201;23;20100;-63
2021/12/19 10:11:13;;;;;;;17.40;8.15;;;;;;;6.34;100.00;103209.13;6218110;23;20077;-62
2021/12/19 10:13:39;;;;;;;16.40;7.20;;;;;;;6.39;100.00;103208.50;6218010;23;20032;-67
2021/12/19 10:16:27;;;;;;;17.42;8.25;;;;;;;6.44;100.00;103201.75;6218250;23;20338;-67
2021/12/19 10:18:57;;;;;;;17.83;10.13;;;;;;;6.35;100.00;103187.50;6217947;23;20015;-68
2021/12/19 10:21:22;;;;;;;19.45;9.52;;;;;;;6.40;100.00;103194.69;6218454;23;20040;-69
2021/12/19 10:23:48;;;;;;;17.58;9.35;;;;;;;6.45;100.00;103200.03;6216928;23;20311;-70
2021/12/19 10:26:14;;;;;;;17.63;9.27;;;;;;;6.43;100.00;103192.19;6214870;23;20009;-62
2021/12/19 10:28:55;;;;;;;16.30;9.10;;;;;;;6.46;100.00;103175.81;6218071;23;20012;-64
2021/12/19 10:31:22;;;;;;;24.77;10.32;;;;;;;6.58;100.00;103190.19;6218221;23;20036;-66
2021/12/19 10:33:48;;;;;;;19.45;8.98;;;;;;;6.54;100.00;103172.72;6217208;23;20008;-65
2021/12/19 10:36:16;;;;;;;28.33;9.45;;;;;;;6.67;100.00;103176.69;6218130;23;20090;-68
2021/12/19 10:38:44;;;;;;;28.83;10.00;;;;;;;6.70;100.00;103168.13;6217571;23;20015;-60
2021/12/19 10:41:22;;;;;;;32.90;10.00;;;;;;;6.83;100.00;103172.97;6218016;23;20008;-63
2021/12/19 10:43:57;;;;;;;20.55;8.65;;;;;;;6.73;100.00;103158.72;6217919;23;20023;-63
2021/12/19 10:46:29;;;;;;;17.77;8.07;;;;;;;6.80;100.00;103163.31;6215739;23;20011;-63
2021/12/19 10:48:54;;;;;;;24.73;8.25;;;;;;;6.76;100.00;103161.41;6216446;23;20429;-64
2021/12/19 10:51:21;;;;;;;20.10;7.53;;;;;;;6.76;100.00;103160.53;6217020;23;20005;-67
2021/12/19 10:53:55;;;;;;;16.80;7.35;;;;;;;6.85;100.00;103158.31;6217889;23;20067;-65
2021/12/19 10:56:29;;;;;;;15.98;7.35;;;;;;;6.79;100.00;103155.47;6217236;23;20016;-65
2021/12/19 10:59:06;;;;;;;14.73;7.60;;;;;;;6.71;100.00;103141.28;6217252;23;20004;-59
2021/12/19 11:01:44;;;;;;;16.75;7.55;;;;;;;6.64;100.00;103146.22;6217806;23;20271;-66
2021/12/19 11:04:23;;;;;;;16.83;8.25;;;;;;;6.62;100.00;103157.41;6217608;23;20062;-66
2021/12/19 11:06:59;;;;;;;15.13;7.88;;;;;;;6.51;100.00;103154.38;6217723;23;20011;-67
2021/12/19 11:09:27;;;;;;;16.33;8.48;;;;;;;6.53;100.00;103154.44;6217813;23;20004;-65
2021/12/19 11:11:56;;;;;;;14.43;8.48;;;;;;;6.55;100.00;103137.19;6217741;23;20084;-65
2021/12/19 11:14:28;;;;;;;10.27;5.80;;;;;;;6.47;100.00;103135.97;6217490;23;20070;-66
2021/12/19 11:16:58;;;;;;;12.68;6.35;;;;;;;6.50;100.00;103130.91;6217522;23;20402;-67
2021/12/19 11:19:25;;;;;;;13.15;6.45;;;;;;;6.51;100.00;103117.06;6217153;23;20309;-66
2021/12/19 11:21:50;;;;;;;10.30;5.90;;;;;;;6.53;100.00;103110.22;6217687;23;20004;-66
2021/12/19 11:24:17;;;;;;;11.65;4.93;;;;;;;6.56;100.00;103111.25;6217745;23;20309;-67
2021/12/19 11:26:45;;;;;;;11.82;5.70;;;;;;;6.62;100.00;103113.16;6217713;23;20016;-66
2021/12/19 11:29:11;;;;;;;9.65;5.60;;;;;;;6.65;100.00;103105.50;6217591;23;20067;-65
2021/12/19 11:31:39;;;;;;;10.18;5.63;;;;;;;6.69;100.00;103089.19;6217607;23;20005;-66
2021/12/19 11:34:21;;;;;;;10.82;5.90;;;;;;;6.73;100.00;103093.69;6217638;23;20004;-64
2021/12/19 11:37:00;;;;;;;9.27;5.63;;;;;;;6.73;100.00;103074.59;6217782;23;20091;-65
2021/12/19 11:39:34;;;;;;;10.07;6.10;;;;;;;6.75;100.00;103070.31;6217324;23;20005;-65
2021/12/19 11:42:32;;;;;;;13.07;7.20;;;;;;;6.86;100.00;103079.41;6217080;23;20413;-68
2021/12/19 11:47:37;;;;;;;11.02;7.38;;;;;;;6.79;100.00;103064.38;6227568;23;20020;-65
2021/12/19 11:50:21;;;;;;;13.57;6.93;;;;;;;6.82;100.00;103069.72;6217281;23;20341;-66
2021/12/19 11:52:48;;;;;;;11.32;6.65;;;;;;;6.84;100.00;103071.53;6216091;23;20302;-67
2021/12/19 11:55:14;;;;;;;11.10;6.07;;;;;;;6.84;100.00;103073.25;6217252;23;20102;-65
2021/12/19 11:57:58;;;;;;;8.67;5.87;;;;;;;6.83;100.00;103067.16;6216669;23;20394;-64
2021/12/19 12:00:40;;;;;;;11.15;6.07;;;;;;;6.76;100.00;103061.66;6216706;23;20538;-64
2021/12/19 12:03:14;;;;;;;9.18;5.85;;;;;;;6.76;100.00;103059.94;6216823;23;20035;-65
2021/12/19 12:05:44;;;;;;;9.00;6.03;;;;;;;6.70;100.00;103057.13;6216909;23;20378;-64
2021/12/19 12:08:12;;;;;;;10.43;6.00;;;;;;;6.70;100.00;103059.72;6216802;23;20082;-67
2021/12/19 12:10:56;;;;;;;9.70;6.00;;;;;;;6.70;100.00;103059.72;6217423;23;20001;-65
2021/12/19 12:13:41;;;;;;;9.98;5.22;;;;;;;6.74;100.00;103063.34;6218795;23;20019;-64
2021/12/19 12:16:13;;;;;;;8.38;5.03;;;;;;;6.75;100.00;103054.72;6218396;23;20385;-65